Flight Track Log - Related Links

Times and Time Zones

All times are in EDT time to prevent confusion due to time zone crossing. See the SWA1969 flight status page for this flight to view local times or setup timezone preferences in your user account.

Time Position Orientation Groundspeed Altitude Reporting Facility
EDT Latitude Longitude Course Direction KTS MPH feet Rate Location/Type
Wed 01:48:26 PM 41.7833 -87.7000 183° South 170 196 2,800  Level Chicago TRACON
Wed 01:50:54 PM 41.6472 -87.7097 183° South 245 282 8,300 2,383 Climbing Chicago Center
Wed 01:51:55 PM 41.6061 -87.7878 235° Southwest 255 293 11,100 1,869 Climbing Chicago Center
Wed 01:52:56 PM 41.5644 -87.8672 235° Southwest 261 300 12,100 2,022 Climbing Chicago Center
Wed 01:54:59 PM 41.4889 -88.0117 235° Southwest 232 267 17,300 2,185 Climbing Chicago Center
Wed 01:56:00 PM 41.4436 -88.0989 235° Southwest 273 314 18,800 1,512 Climbing Chicago Center
Wed 01:57:02 PM 41.3756 -88.1658 216° Southwest 311 358 20,400 1,122 Climbing Chicago Center
Wed 01:58:03 PM 41.2856 -88.2089 200° South 347 399 21,100 1,033 Climbing Chicago Center
Wed 01:59:04 PM 41.1858 -88.2569 200° South 380 437 22,500 1,415 Climbing Chicago Center
Wed 02:00:06 PM 41.0825 -88.3067 200° South 392 451 24,000 1,415 Climbing Chicago Center
Wed 02:01:07 PM 40.9811 -88.4097 218° Southwest 406 467 25,400 1,279 Climbing Chicago Center
Wed 02:02:08 PM 40.9278 -88.5408 242° Southwest 405 466 26,600 1,073 Climbing Chicago Center
Wed 02:03:10 PM 40.8742 -88.6761 242° Southwest 413 475 27,600 927 Climbing Chicago Center
Wed 02:04:11 PM 40.8183 -88.8128 242° Southwest 422 486 28,500 836 Climbing Chicago Center
Wed 02:05:12 PM 40.7597 -88.9539 241° Southwest 435 501 29,300 984 Climbing Chicago Center
Wed 02:06:13 PM 40.7000 -89.0961 241° Southwest 440 506 30,500 1,268 Climbing Chicago Center
Wed 02:07:15 PM 40.6417 -89.2389 242° Southwest 442 509 31,900 1,268 Climbing Chicago Center
Wed 02:08:16 PM 40.5836 -89.3781 241° Southwest 434 499 33,100 1,033 Climbing Chicago Center
Wed 02:09:17 PM 40.5247 -89.5156 241° Southwest 429 494 34,000 439 Climbing Chicago Center
Wed 02:10:19 PM 40.4664 -89.6536 241° Southwest 427 491 34,000  Level Chicago Center
Wed 02:11:20 PM 40.4089 -89.7908 241° Southwest 425 489 34,000  Level Chicago Center
Wed 02:12:21 PM 40.3369 -89.9172 233° Southwest 430 495 34,000  Level Chicago Center
Wed 02:13:22 PM 40.2611 -90.0383 231° Southwest 429 494 34,000  Level Chicago Center
Wed 02:14:24 PM 40.1853 -90.1600 231° Southwest 431 496 34,000  Level Chicago Center
Wed 02:15:25 PM 40.1086 -90.2836 231° Southwest 437 503 34,000  Level Chicago Center
Wed 02:16:26 PM 40.0186 -90.4308 231° Southwest 435 501 34,000  Level Chicago Center
Wed 02:17:38 PM 39.9450 -90.5553 232° Southwest 432 497 34,000  Level Kansas City Center
Wed 02:18:39 PM 39.8564 -90.7011 232° Southwest 429 494 34,000  Level Kansas City Center
Wed 02:19:42 PM 39.7828 -90.8247 232° Southwest 430 495 34,000  Level Kansas City Center
Wed 02:20:44 PM 39.7183 -90.9356 233° Southwest 430 495 34,000  Level Kansas City Center
Wed 02:21:47 PM 39.6311 -91.0847 233° Southwest 433 498 34,000  Level Kansas City Center
Wed 02:22:49 PM 39.5583 -91.2108 233° Southwest 437 503 34,000  Level Kansas City Center
Wed 02:23:49 PM 39.4872 -91.3389 234° Southwest 439 505 34,000  Level Kansas City Center
Wed 02:24:53 PM 39.4131 -91.4664 233° Southwest 443 510 34,000  Level Kansas City Center
Wed 02:25:54 PM 39.3392 -91.5944 233° Southwest 445 512 34,000  Level Kansas City Center
Wed 02:26:55 PM 39.2553 -91.7389 233° Southwest 446 513 34,000  Level Kansas City Center
Wed 02:27:59 PM 39.1881 -91.8606 235° Southwest 446 513 34,000  Level Kansas City Center
Wed 02:29:00 PM 39.1017 -92.0206 235° Southwest 451 519 34,000  Level Kansas City Center
Wed 02:30:00 PM 39.0286 -92.1508 234° Southwest 451 519 34,000  Level Kansas City Center
Wed 02:31:04 PM 38.9581 -92.2878 237° Southwest 455 524 34,000  Level Kansas City Center
Wed 02:32:05 PM 38.9033 -92.4319 244° Southwest 450 518 34,000  Level Kansas City Center
Wed 02:33:08 PM 38.8539 -92.5811 247° West 451 519 34,000  Level Kansas City Center
Wed 02:34:09 PM 38.8106 -92.7350 250° West 456 525 34,000  Level Kansas City Center
Wed 02:35:13 PM 38.7550 -92.9181 249° West 458 527 34,000  Level Kansas City Center
Wed 02:36:14 PM 38.7089 -93.0700 249° West 459 528 34,000  Level Kansas City Center
Wed 02:37:14 PM 38.6642 -93.2219 249° West 458 527 34,000  Level Kansas City Center
Wed 02:38:19 PM 38.6183 -93.3739 249° West 459 528 34,000  Level Kansas City Center
Wed 02:39:19 PM 38.5717 -93.5233 248° West 456 525 34,000  Level Kansas City Center
Wed 02:40:23 PM 38.5264 -93.6725 249° West 453 521 34,000  Level Kansas City Center
Wed 02:41:24 PM 38.4722 -93.8503 249° West 450 518 34,000  Level Kansas City Center
Wed 02:42:24 PM 38.4264 -93.9969 248° West 447 514 34,000  Level Kansas City Center
Wed 02:43:28 PM 38.3792 -94.1436 248° West 444 511 34,000  Level Kansas City Center
Wed 02:44:30 PM 38.3375 -94.2794 249° West 438 504 34,000  Level Kansas City Center
Wed 02:45:31 PM 38.2886 -94.4364 248° West 433 498 34,000  Level Kansas City Center
Wed 02:46:31 PM 38.2589 -94.5736 255° West 425 489 34,000  Level Kansas City Center
Wed 02:47:35 PM 38.2367 -94.7161 259° West 428 493 34,000  Level Kansas City Center
Wed 02:48:36 PM 38.2083 -94.8833 258° West 425 489 34,000  Level Kansas City Center
Wed 02:49:39 PM 38.1811 -95.0203 256° West 425 489 34,000  Level Kansas City Center
Wed 02:50:40 PM 38.1481 -95.1831 256° West 425 489 34,000  Level Kansas City Center
Wed 02:51:43 PM 38.1200 -95.3214 256° West 422 486 34,000  Level Kansas City Center
Wed 02:52:44 PM 38.0778 -95.4775 251° West 419 482 34,000  Level Kansas City Center
Wed 02:53:45 PM 38.0300 -95.6058 245° Southwest 418 481 34,000  Level Kansas City Center
Wed 02:54:49 PM 37.9756 -95.7556 245° Southwest 418 481 34,000  Level Kansas City Center
Wed 02:55:49 PM 37.9275 -95.8833 245° Southwest 416 479 34,000  Level Kansas City Center
Wed 02:56:51 PM 37.8781 -96.0158 245° Southwest 417 480 34,000  Level Kansas City Center
Wed 02:57:54 PM 37.8256 -96.1575 245° Southwest 412 474 34,000  Level Kansas City Center
Wed 02:58:55 PM 37.7767 -96.2847 244° Southwest 405 466 34,000  Level Kansas City Center
Wed 02:59:58 PM 37.7292 -96.4114 245° Southwest 401 461 34,000  Level Kansas City Center
Wed 03:00:59 PM 37.6561 -96.5136 228° Southwest 393 452 34,000  Level Kansas City Center
Wed 03:02:02 PM 37.5806 -96.6131 226° Southwest 392 451 34,000  Level Kansas City Center
Wed 03:03:05 PM 37.5061 -96.7125 227° Southwest 390 449 34,000  Level Kansas City Center
Wed 03:04:06 PM 37.4181 -96.8303 227° Southwest 386 444 34,000  Level Kansas City Center
Wed 03:05:08 PM 37.3433 -96.9283 226° Southwest 386 444 34,000  Level Kansas City Center
Wed 03:06:09 PM 37.2675 -97.0267 226° Southwest 390 449 34,000  Level Kansas City Center
Wed 03:07:11 PM 37.1922 -97.1233 226° Southwest 388 447 34,000  Level Kansas City Center
Wed 03:08:12 PM 37.1139 -97.2197 224° Southwest 390 449 34,000  Level Kansas City Center
Wed 03:09:16 PM 37.0375 -97.3172 226° Southwest 391 450 34,000  Level Kansas City Center
Wed 03:10:18 PM 36.9603 -97.4125 225° Southwest 391 450 34,000  Level Kansas City Center
Wed 03:11:18 PM 36.8833 -97.5100 225° Southwest 392 451 34,000  Level Kansas City Center
Wed 03:12:22 PM 36.7900 -97.6292 226° Southwest 396 456 34,000  Level Kansas City Center
Wed 03:13:23 PM 36.7128 -97.7292 226° Southwest 398 458 34,000  Level Kansas City Center
Wed 03:14:23 PM 36.6283 -97.8381 226° Southwest 400 460 34,000  Level Kansas City Center
Wed 03:15:27 PM 36.5519 -97.9408 227° Southwest 403 464 34,000  Level Kansas City Center
Wed 03:16:28 PM 36.4767 -98.0461 228° Southwest 403 464 34,000  Level Kansas City Center
Wed 03:17:32 PM 36.4169 -98.1633 238° Southwest 410 472 34,000  Level Kansas City Center
Wed 03:18:32 PM 36.4050 -98.3072 264° West 415 478 34,000  Level Kansas City Center
Wed 03:19:33 PM 36.3925 -98.4517 264° West 419 482 34,000  Level Kansas City Center
Wed 03:20:36 PM 36.3819 -98.5967 265° West 422 486 34,000  Level Kansas City Center
Wed 03:21:38 PM 36.3664 -98.7694 264° West 421 484 34,000  Level Kansas City Center
Wed 03:22:38 PM 36.3539 -98.9122 264° West 419 482 34,000  Level Kansas City Center
Wed 03:23:42 PM 36.3422 -99.0553 264° West 420 483 34,000 240 Level Kansas City Center
Wed 03:24:43 PM 36.3297 -99.1989 264° West 422 486 34,500 720 Climbing Kansas City Center
Wed 03:25:47 PM 36.3172 -99.3433 264° West 424 488 35,500 720 Climbing Kansas City Center
Wed 03:26:48 PM 36.3044 -99.4867 264° West 423 487 36,000 246 Climbing Kansas City Center
Wed 03:27:49 PM 36.2892 -99.6581 264° West 420 483 36,000  Level Kansas City Center
Wed 03:28:50 PM 36.2756 -99.7997 263° West 417 480 36,000  Level Kansas City Center
Wed 03:29:54 PM 36.2625 -99.9411 264° West 415 478 36,000  Level Kansas City Center
Wed 03:30:55 PM 36.2500 -100.0806 264° West 409 471 36,000  Level Kansas City Center
Wed 03:31:56 PM 36.2364 -100.2175 263° West 404 465 36,000  Level Kansas City Center
Wed 03:32:57 PM 36.2225 -100.3572 263° West 407 468 36,000  Level Kansas City Center
Wed 03:33:38 PM 36.2111 -100.4681 263° West 406 467 36,000  Level Albuquerque Center
Wed 03:34:40 PM 36.1978 -100.6053 263° West 403 464 36,000  Level Albuquerque Center
Wed 03:35:42 PM 36.1853 -100.7408 264° West 400 460 36,000  Level Albuquerque Center
Wed 03:36:44 PM 36.1708 -100.8761 263° West 398 458 36,000  Level Albuquerque Center
Wed 03:37:46 PM 36.1569 -101.0094 263° West 392 451 36,000  Level Albuquerque Center
Wed 03:38:48 PM 36.1425 -101.1397 262° West 385 443 36,000  Level Albuquerque Center
Wed 03:39:50 PM 36.1275 -101.2936 263° West 386 444 36,000  Level Albuquerque Center
Wed 03:40:52 PM 36.1144 -101.4264 263° West 390 449 36,000  Level Albuquerque Center
Wed 03:41:54 PM 36.0994 -101.5572 262° West 388 447 36,000  Level Albuquerque Center
Wed 03:42:56 PM 36.0856 -101.6872 263° West 385 443 36,000  Level Albuquerque Center
Wed 03:43:57 PM 36.0686 -101.8431 262° West 385 443 36,000  Level Albuquerque Center
Wed 03:44:59 PM 36.0539 -101.9719 262° West 383 441 36,000  Level Albuquerque Center
Wed 03:46:01 PM 36.0389 -102.1019 262° West 384 442 36,000  Level Albuquerque Center
Wed 03:47:03 PM 36.0244 -102.2311 262° West 383 441 36,000  Level Albuquerque Center
Wed 03:48:05 PM 36.0092 -102.3597 262° West 382 440 36,000  Level Albuquerque Center
Wed 03:49:07 PM 35.9956 -102.4878 263° West 379 436 36,000  Level Albuquerque Center
Wed 03:50:09 PM 35.9767 -102.6386 261° West 374 430 36,000  Level Albuquerque Center
Wed 03:51:11 PM 35.9619 -102.7639 262° West 371 427 36,000  Level Albuquerque Center
Wed 03:52:13 PM 35.9472 -102.8892 262° West 370 426 36,000  Level Albuquerque Center
Wed 03:53:15 PM 35.9344 -103.0089 263° West 368 423 36,000  Level Albuquerque Center
Wed 03:54:17 PM 35.9156 -103.1519 261° West 362 417 36,000  Level Albuquerque Center
Wed 03:55:18 PM 35.9000 -103.2750 261° West 361 415 36,000  Level Albuquerque Center
Wed 03:56:20 PM 35.8858 -103.3989 262° West 362 417 36,000  Level Albuquerque Center
Wed 03:57:22 PM 35.8697 -103.5197 261° West 358 412 36,000  Level Albuquerque Center
Wed 03:58:24 PM 35.8550 -103.6433 262° West 361 415 36,000  Level Albuquerque Center
Wed 03:59:26 PM 35.8394 -103.7644 261° West 358 412 36,000  Level Albuquerque Center
Wed 04:00:28 PM 35.8236 -103.8869 261° West 359 413 36,000  Level Albuquerque Center
Wed 04:01:30 PM 35.8056 -104.0292 261° West 359 413 36,000  Level Albuquerque Center
Wed 04:02:32 PM 35.7900 -104.1522 261° West 362 417 36,000  Level Albuquerque Center
Wed 04:03:34 PM 35.7733 -104.2744 260° West 362 417 36,000  Level Albuquerque Center
Wed 04:04:35 PM 35.7578 -104.3975 261° West 362 417 36,000  Level Albuquerque Center
Wed 04:05:37 PM 35.7403 -104.5200 260° West 362 417 36,000  Level Albuquerque Center
Wed 04:06:39 PM 35.7244 -104.6422 261° West 361 415 36,000  Level Albuquerque Center
Wed 04:07:41 PM 35.7056 -104.7639 259° West 361 415 36,000  Level Albuquerque Center
Wed 04:08:43 PM 35.6828 -104.9039 259° West 357 411 36,000  Level Albuquerque Center
Wed 04:09:45 PM 35.6675 -105.0222 261° West 352 405 36,000  Level Albuquerque Center
Wed 04:10:47 PM 35.6492 -105.1422 259° West 354 407 36,000  Level Albuquerque Center
Wed 04:11:49 PM 35.6286 -105.2647 258° West 361 415 36,000  Level Albuquerque Center
Wed 04:12:50 PM 35.6111 -105.3861 260° West 359 413 36,000  Level Albuquerque Center
Wed 04:13:52 PM 35.5911 -105.5100 259° West 367 422 36,000  Level Albuquerque Center
Wed 04:14:54 PM 35.5722 -105.6375 260° West 374 430 36,000  Level Albuquerque Center
Wed 04:15:56 PM 35.5467 -105.7872 258° West 380 437 36,000  Level Albuquerque Center
Wed 04:16:58 PM 35.5281 -105.9047 259° West 376 433 36,000  Level Albuquerque Center
Wed 04:18:00 PM 35.5108 -106.0264 260° West 367 422 36,000  Level Albuquerque Center
Wed 04:19:02 PM 35.4894 -106.1497 258° West 368 423 36,000  Level Albuquerque Center
Wed 04:20:03 PM 35.4717 -106.2747 260° West 372 428 36,000  Level Albuquerque Center
Wed 04:21:05 PM 35.4525 -106.3967 259° West 369 425 36,000  Level Albuquerque Center
Wed 04:22:07 PM 35.4275 -106.5411 258° West 364 419 36,000  Level Albuquerque Center
Wed 04:23:09 PM 35.4075 -106.6619 259° West 365 420 36,000  Level Albuquerque Center
Wed 04:24:11 PM 35.3872 -106.7833 258° West 365 420 36,000  Level Albuquerque Center
Wed 04:25:13 PM 35.3619 -106.9250 258° West 371 427 36,000  Level Albuquerque Center
Wed 04:26:15 PM 35.3428 -107.0425 259° West 369 425 36,000  Level Albuquerque Center
Wed 04:27:17 PM 35.3233 -107.1606 259° West 370 426 36,000  Level Albuquerque Center
Wed 04:28:18 PM 35.2994 -107.3033 258° West 384 442 36,000  Level Albuquerque Center
Wed 04:29:21 PM 35.2764 -107.4317 258° West 388 447 36,000  Level Albuquerque Center
Wed 04:30:22 PM 35.2514 -107.5756 258° West 391 450 36,000  Level Albuquerque Center
Wed 04:31:24 PM 35.2300 -107.7008 258° West 393 452 36,000  Level Albuquerque Center
Wed 04:32:26 PM 35.2042 -107.8419 257° West 384 442 36,000  Level Albuquerque Center
Wed 04:33:28 PM 35.1844 -107.9617 259° West 378 435 36,000  Level Albuquerque Center
Wed 04:34:30 PM 35.1597 -108.1053 258° West 382 440 36,000  Level Albuquerque Center
Wed 04:35:32 PM 35.1375 -108.2261 257° West 382 440 36,000  Level Albuquerque Center
Wed 04:36:34 PM 35.1161 -108.3464 258° West 379 436 36,000  Level Albuquerque Center
Wed 04:37:36 PM 35.0903 -108.4856 257° West 376 433 36,000  Level Albuquerque Center
Wed 04:38:38 PM 35.0700 -108.6053 258° West 376 433 36,000  Level Albuquerque Center
Wed 04:39:40 PM 35.0436 -108.7444 257° West 377 434 36,000  Level Albuquerque Center
Wed 04:40:42 PM 35.0217 -108.8628 257° West 375 432 36,000  Level Albuquerque Center
Wed 04:41:44 PM 34.9964 -108.9997 257° West 371 427 36,000  Level Albuquerque Center
Wed 04:42:46 PM 34.9742 -109.1172 257° West 370 426 36,000  Level Albuquerque Center
Wed 04:43:48 PM 34.9331 -109.2492 249° West 374 430 36,000  Level Albuquerque Center
Wed 04:44:50 PM 34.8931 -109.3594 246° West 372 428 36,000  Level Albuquerque Center
Wed 04:45:52 PM 34.8456 -109.4867 246° West 369 425 36,000  Level Albuquerque Center
Wed 04:46:54 PM 34.8050 -109.5936 245° Southwest 365 420 36,000  Level Albuquerque Center
Wed 04:47:56 PM 34.7633 -109.7019 245° Southwest 366 421 36,000  Level Albuquerque Center
Wed 04:48:58 PM 34.7175 -109.8314 247° West 371 427 36,000  Level Albuquerque Center
Wed 04:50:00 PM 34.6775 -109.9392 246° West 369 425 36,000  Level Albuquerque Center
Wed 04:51:02 PM 34.6300 -110.0681 246° West 371 427 36,000  Level Albuquerque Center
Wed 04:52:04 PM 34.5928 -110.1839 249° West 381 438 36,000 -242 Level Albuquerque Center
Wed 04:53:06 PM 34.5453 -110.3106 246° West 372 428 35,500 -1,548 Descending Albuquerque Center
Wed 04:55:10 PM 34.4622 -110.5219 245° Southwest 368 423 31,200 -2,194 Descending Albuquerque Center
Wed 04:56:12 PM 34.4153 -110.6453 245° Southwest 342 394 28,700 -2,129 Descending Albuquerque Center
Wed 04:57:14 PM 34.3742 -110.7417 243° Southwest 327 376 26,800 -1,790 Descending Albuquerque Center
Wed 04:58:16 PM 34.3289 -110.8283 238° Southwest 311 358 25,000 -1,742 Descending Albuquerque Center
Wed 04:59:18 PM 34.2719 -110.9031 227° Southwest 303 349 23,200 -1,694 Descending Albuquerque Center
Wed 05:00:20 PM 34.2153 -110.9756 227° Southwest 298 343 21,500 -1,694 Descending Albuquerque Center
Wed 05:01:22 PM 34.1575 -111.0494 227° Southwest 300 345 19,700 -1,935 Descending Albuquerque Center
Wed 05:02:24 PM 34.0867 -111.1425 227° Southwest 307 353 17,500 -1,887 Descending Albuquerque Center
Wed 05:03:26 PM 34.0258 -111.2208 227° Southwest 314 361 15,800 -1,632 Descending Albuquerque Center
Wed 05:04:29 PM 33.9664 -111.2975 227° Southwest 312 359 14,100 -1,584 Descending Albuquerque Center
Wed 05:05:31 PM 33.9061 -111.3722 226° Southwest 310 357 12,500 -1,355 Descending Albuquerque Center
Wed 05:06:33 PM 33.8444 -111.4372 221° Southwest 292 336 11,300 -823 Descending Albuquerque Center
Wed 05:07:35 PM 33.7786 -111.4925 215° Southwest 287 330 10,800 -774 Descending Albuquerque Center
Wed 05:08:37 PM 33.7167 -111.5469 216° Southwest 268 308 9,700 -919 Descending Albuquerque Center
Wed 05:09:39 PM 33.6489 -111.6039 215° Southwest 255 293 8,900 -919 Descending Albuquerque Center
Wed 05:10:41 PM 33.5975 -111.6483 216° Southwest 230 265 7,800 -823 Descending Albuquerque Center
Wed 05:11:43 PM 33.5447 -111.6917 214° Southwest 229 264 7,200 -532 Descending Albuquerque Center
Wed 05:12:45 PM 33.4919 -111.7364 215° Southwest 228 262 6,700 -581 Descending Albuquerque Center
Wed 05:13:47 PM 33.4561 -111.7786 225° Southwest 185 213 6,000 -774 Descending Albuquerque Center
Wed 05:14:49 PM 33.4400 -111.8275 248° West 160 184 5,100 -1,161 Descending Albuquerque Center
Wed 05:15:51 PM 33.4436 -111.8758 275° West 147 169 3,600 -1,452 Descending Albuquerque Center
Wed 05:16:53 PM 33.4408 -111.9361 267° West 151 174 2,100 -1,113 Descending Albuquerque Center
Wed 05:17:55 PM 33.4403 -111.9908 269° West 153 176 1,300 -774 Descending Albuquerque Center
Wed 05:19:00 PM 33.4343 -112.0116 270° West  Level Estimated

Login

Don't have an account? Register now (free) for customized features, flight alerts, and more!